createdAt,value
2023-04-28T00:00:00.580Z,44.06
2023-04-28T00:02:30.673Z,44.18
2023-04-28T00:05:01.108Z,43.97
2023-04-28T00:07:34.013Z,44.17
2023-04-28T00:10:04.093Z,43.88
2023-04-28T00:12:35.170Z,44.05
2023-04-28T00:15:05.460Z,44.18
2023-04-28T00:17:35.770Z,44.36
2023-04-28T00:20:06.107Z,44.52
2023-04-28T00:22:38.839Z,44.74
2023-04-28T00:25:09.594Z,44.56
2023-04-28T00:27:40.182Z,44.57
2023-04-28T00:30:14.310Z,45.04
2023-04-28T00:32:44.474Z,44.91
2023-04-28T00:35:14.914Z,45.25
2023-04-28T00:37:47.895Z,45.42
2023-04-28T00:40:18.420Z,45.48
2023-04-28T00:42:48.792Z,45.18
2023-04-28T00:45:19.005Z,45.32
2023-04-28T00:47:49.182Z,45.07
2023-04-28T00:50:20.051Z,45.10
2023-04-28T00:52:53.291Z,45.08
2023-04-28T00:55:24.875Z,45.23
2023-04-28T00:57:55.393Z,45.55
2023-04-28T01:00:25.928Z,45.44
2023-04-28T01:02:57.258Z,45.53
2023-04-28T01:05:29.490Z,45.51
2023-04-28T01:08:03.259Z,45.47
2023-04-28T01:10:33.815Z,45.74
2023-04-28T01:13:11.229Z,45.66
2023-04-28T01:15:41.963Z,45.82
2023-04-28T01:18:12.059Z,46.00
2023-04-28T01:20:42.490Z,45.98
2023-04-28T01:23:18.772Z,45.92
2023-04-28T01:25:51.556Z,46.04
2023-04-28T01:28:21.815Z,46.07
2023-04-28T01:30:52.001Z,46.03
2023-04-28T01:33:22.048Z,46.17
2023-04-28T01:35:52.192Z,46.10
2023-04-28T01:38:22.336Z,46.27
2023-04-28T01:40:58.806Z,46.38
2023-04-28T01:43:44.078Z,46.45
2023-04-28T01:46:14.318Z,46.11
2023-04-28T01:48:46.191Z,46.06
2023-04-28T01:51:16.414Z,46.28
2023-04-28T01:53:46.913Z,46.37
2023-04-28T01:56:19.886Z,46.32
2023-04-28T01:58:50.121Z,46.08
2023-04-28T02:01:20.665Z,46.34
2023-04-28T02:03:52.154Z,46.32
2023-04-28T02:06:22.386Z,46.10
2023-04-28T02:08:55.541Z,46.24
2023-04-28T02:11:29.606Z,46.55
2023-04-28T02:14:01.489Z,46.21
2023-04-28T02:16:31.834Z,46.34
2023-04-28T02:19:02.135Z,46.40
2023-04-28T02:21:33.131Z,46.42
2023-04-28T02:24:03.280Z,46.46
2023-04-28T02:26:37.606Z,46.62
2023-04-28T02:29:07.797Z,46.38
2023-04-28T02:31:39.144Z,46.34
2023-04-28T02:34:09.632Z,46.30
2023-04-28T02:36:40.143Z,45.99
2023-04-28T02:39:10.894Z,45.91
2023-04-28T02:41:44.789Z,45.99
2023-04-28T02:44:15.161Z,45.98
2023-04-28T02:46:45.507Z,46.01
2023-04-28T02:49:16.057Z,46.06
2023-04-28T02:51:46.745Z,46.06
2023-04-28T02:54:17.153Z,46.03
2023-04-28T02:56:50.074Z,46.01
2023-04-28T02:59:20.280Z,45.96
2023-04-28T03:01:50.791Z,45.98
2023-04-28T03:04:21.607Z,46.22
2023-04-28T03:06:53.531Z,46.27
2023-04-28T03:09:24.066Z,46.22
2023-04-28T03:11:56.844Z,46.00
2023-04-28T03:14:27.049Z,46.13
2023-04-28T03:17:00.846Z,46.09
2023-04-28T03:19:30.995Z,46.03
2023-04-28T03:22:01.320Z,45.86
2023-04-28T03:24:31.462Z,45.96
2023-04-28T03:27:04.645Z,46.19
2023-04-28T04:04:49.145Z,45.63
2023-04-28T04:07:19.809Z,45.53
2023-04-28T04:09:49.899Z,45.39
2023-04-28T04:12:36.804Z,45.34
2023-04-28T04:15:13.555Z,45.28
2023-04-28T04:17:46.043Z,45.18
2023-04-28T04:20:23.042Z,45.09
2023-04-28T04:22:53.578Z,45.01
2023-04-28T04:25:23.626Z,45.03
2023-04-28T04:27:55.317Z,45.10
2023-04-28T04:30:40.242Z,44.71
2023-04-28T04:33:23.853Z,44.40
2023-04-28T04:35:58.235Z,43.88
2023-04-28T04:38:30.616Z,43.20
2023-04-28T04:41:43.724Z,43.17
2023-04-28T04:44:35.916Z,42.20
2023-04-28T04:47:09.269Z,41.94
2023-04-28T04:49:40.457Z,41.67
2023-04-28T04:52:13.137Z,40.87
2023-04-28T04:54:43.215Z,40.27
2023-04-28T04:57:14.435Z,40.20
2023-04-28T05:00:06.377Z,39.73
2023-04-28T05:02:37.433Z,39.82
2023-04-28T05:05:20.464Z,39.82
2023-04-28T05:08:14.700Z,39.96
2023-04-28T05:10:44.702Z,39.91
2023-04-28T05:13:14.788Z,39.98
2023-04-28T05:15:44.923Z,39.97
2023-04-28T05:18:29.385Z,39.45
2023-04-28T05:20:59.585Z,39.20
2023-04-28T05:23:32.512Z,38.51
2023-04-28T05:26:04.152Z,38.31
2023-04-28T05:28:34.813Z,38.02
2023-04-28T05:31:05.208Z,37.87
2023-04-28T05:33:35.882Z,37.86
2023-04-28T05:36:05.998Z,37.46
2023-04-28T05:38:38.661Z,37.34
2023-04-28T05:41:09.114Z,37.06
2023-04-28T05:43:39.173Z,36.64
2023-04-28T05:46:18.228Z,36.66
2023-04-28T05:48:52.316Z,36.22
2023-04-28T05:51:22.757Z,35.93
2023-04-28T05:53:55.379Z,35.63
2023-04-28T05:56:25.929Z,35.48
2023-04-28T05:58:56.167Z,35.04
2023-04-28T06:01:26.552Z,34.40
2023-04-28T06:03:58.894Z,33.75
2023-04-28T06:06:30.293Z,33.45
2023-04-28T06:09:05.830Z,33.25
2023-04-28T06:11:36.887Z,32.79
2023-04-28T06:14:10.645Z,33.19
2023-04-28T06:16:40.810Z,33.09
2023-04-28T06:19:10.895Z,32.40
2023-04-28T06:21:41.332Z,32.22
2023-04-28T06:24:14.355Z,31.57
2023-04-28T06:26:46.887Z,30.99
2023-04-28T06:29:16.984Z,31.34
2023-04-28T06:31:47.029Z,31.49
2023-04-28T06:34:17.238Z,30.75
2023-04-28T06:36:48.587Z,30.22
2023-04-28T06:39:21.418Z,29.98
2023-04-28T06:41:51.496Z,29.68
2023-04-28T06:44:22.402Z,29.52
2023-04-28T06:46:52.845Z,29.00
2023-04-28T06:49:22.905Z,28.51
2023-04-28T06:51:53.145Z,28.49
2023-04-28T06:54:25.970Z,28.01
2023-04-28T06:56:56.050Z,28.70
2023-04-28T06:59:27.713Z,27.52
2023-04-28T07:01:57.807Z,27.54
2023-04-28T07:04:27.981Z,26.98
2023-04-28T07:06:58.194Z,27.00
2023-04-28T07:09:31.556Z,27.70
2023-04-28T07:12:01.671Z,28.00
2023-04-28T07:14:31.732Z,27.77
2023-04-28T07:17:02.281Z,27.82
2023-04-28T07:19:32.351Z,27.87
2023-04-28T07:22:02.573Z,27.58
2023-04-28T07:24:35.310Z,26.72
2023-04-28T07:27:05.446Z,25.88
2023-04-28T07:29:35.831Z,26.64
2023-04-28T07:32:08.451Z,26.86
2023-04-28T07:34:38.826Z,26.65
2023-04-28T07:37:09.031Z,26.15
2023-04-28T07:39:44.655Z,25.75
2023-04-28T07:42:14.661Z,25.92
2023-04-28T07:44:44.773Z,25.99
2023-04-28T07:47:14.831Z,25.72
2023-04-28T07:49:44.836Z,25.02
2023-04-28T07:52:14.986Z,24.78
2023-04-28T07:54:47.663Z,24.78
2023-04-28T07:57:17.730Z,24.55
2023-04-28T07:59:47.863Z,24.15
2023-04-28T08:02:34.675Z,24.19
2023-04-28T08:05:07.158Z,23.87
2023-04-28T08:07:37.484Z,23.95
2023-04-28T08:10:11.866Z,23.97
2023-04-28T08:12:42.058Z,23.51
2023-04-28T08:15:17.291Z,24.03
2023-04-28T08:17:48.507Z,23.75
2023-04-28T08:20:21.650Z,23.35
2023-04-28T08:22:53.596Z,23.75
2023-04-28T08:25:26.281Z,23.45
2023-04-28T08:27:57.383Z,22.79
2023-04-28T08:30:27.736Z,22.93
2023-04-28T08:32:58.190Z,23.09
2023-04-28T08:35:28.491Z,22.35
2023-04-28T08:37:58.575Z,22.59
2023-04-28T08:40:31.692Z,21.77
2023-04-28T08:43:03.182Z,21.83
2023-04-28T08:45:34.240Z,22.24
2023-04-28T08:48:06.829Z,22.18
2023-04-28T08:50:39.354Z,21.88
2023-04-28T08:53:10.465Z,21.81
2023-04-28T08:55:43.266Z,21.26
2023-04-28T08:58:14.107Z,21.29
2023-04-28T09:00:44.201Z,21.73
2023-04-28T09:03:14.431Z,22.23
2023-04-28T09:05:44.538Z,22.09
2023-04-28T09:08:14.852Z,22.14
2023-04-28T09:10:47.565Z,22.24
2023-04-28T09:13:28.545Z,21.83
2023-04-28T09:16:03.598Z,21.72
2023-04-28T09:18:34.956Z,21.39
2023-04-28T09:21:10.214Z,21.08
2023-04-28T09:23:51.492Z,21.22
2023-04-28T09:26:25.298Z,20.80
2023-04-28T09:28:57.539Z,20.77
2023-04-28T09:31:28.834Z,20.90
2023-04-28T09:34:01.971Z,21.34
2023-04-28T09:36:33.809Z,21.19
2023-04-28T09:39:04.584Z,21.37
2023-04-28T09:41:45.682Z,21.04
2023-04-28T09:44:17.477Z,21.10
2023-04-28T09:46:49.287Z,20.66
2023-04-28T09:49:19.331Z,20.78
2023-04-28T09:51:50.473Z,20.87
2023-04-28T09:54:22.480Z,21.28
2023-04-28T09:56:56.190Z,21.08
2023-04-28T09:59:26.455Z,21.21
2023-04-28T10:01:57.687Z,21.46
2023-04-28T10:04:31.857Z,21.07
2023-04-28T10:07:02.578Z,21.12
2023-04-28T10:09:35.437Z,20.86
2023-04-28T10:12:09.954Z,21.42
2023-04-28T10:14:40.635Z,20.88
2023-04-28T10:17:10.874Z,20.68
2023-04-28T10:19:41.092Z,20.41
2023-04-28T10:22:33.172Z,20.73
2023-04-28T10:25:22.393Z,20.66
2023-04-28T10:27:55.837Z,19.80
2023-04-28T10:30:29.656Z,20.04
2023-04-28T10:33:29.069Z,20.68
2023-04-28T10:35:59.787Z,20.30
2023-04-28T10:38:29.789Z,20.02
2023-04-28T10:41:03.450Z,19.92
2023-04-28T10:43:40.571Z,19.98
2023-04-28T10:46:12.503Z,19.72
2023-04-28T10:48:59.076Z,19.63
2023-04-28T10:51:37.753Z,19.33
2023-04-28T10:54:18.396Z,18.90
2023-04-28T10:57:19.022Z,19.14
2023-04-28T10:59:57.598Z,19.44
2023-04-28T11:02:51.896Z,19.81
2023-04-28T11:05:25.413Z,20.24
2023-04-28T11:08:34.462Z,20.79
2023-04-28T11:11:24.464Z,20.75
2023-04-28T11:13:55.695Z,19.26
2023-04-28T11:16:28.867Z,19.52
2023-04-28T11:19:04.802Z,19.57
2023-04-28T11:21:36.201Z,19.83
2023-04-28T11:24:13.013Z,19.34
2023-04-28T11:26:43.985Z,19.57
2023-04-28T11:29:15.355Z,19.45
2023-04-28T11:31:55.003Z,19.69
2023-04-28T11:34:26.868Z,19.02
2023-04-28T11:36:57.238Z,20.13
2023-04-28T11:39:32.036Z,20.59
2023-04-28T11:42:03.295Z,20.37
2023-04-28T11:44:34.282Z,20.40
2023-04-28T11:47:08.591Z,20.36
2023-04-28T11:49:46.911Z,20.84
2023-04-28T11:52:17.047Z,21.07
2023-04-28T11:54:47.446Z,21.38
2023-04-28T11:57:21.793Z,21.79
2023-04-28T11:59:52.702Z,21.65
2023-04-28T12:02:31.911Z,21.47
2023-04-28T12:05:09.286Z,22.45
2023-04-28T12:07:45.800Z,23.05
2023-04-28T12:10:18.977Z,23.13
2023-04-28T12:12:53.499Z,22.98
2023-04-28T12:15:26.467Z,23.36
2023-04-28T12:18:12.013Z,22.87
2023-04-28T12:20:42.831Z,22.94
2023-04-28T12:23:12.850Z,23.20
2023-04-28T12:25:49.393Z,23.90
2023-04-28T12:28:19.613Z,24.11
2023-04-28T12:30:49.693Z,23.83
2023-04-28T12:33:30.163Z,24.54
2023-04-28T12:36:01.721Z,24.16
2023-04-28T12:38:32.582Z,24.64
2023-04-28T12:41:05.351Z,24.28
2023-04-28T12:43:35.894Z,24.89
2023-04-28T12:46:06.263Z,24.78
2023-04-28T12:48:38.963Z,25.04
2023-04-28T12:51:09.158Z,25.50
2023-04-28T12:53:39.276Z,25.43
2023-04-28T12:56:10.494Z,25.68
2023-04-28T12:58:41.240Z,25.18
2023-04-28T13:01:11.468Z,25.48
2023-04-28T13:03:44.627Z,25.88
2023-04-28T13:06:14.864Z,25.69
2023-04-28T13:08:45.148Z,25.96
2023-04-28T13:11:22.891Z,26.14
2023-04-28T13:13:53.496Z,26.25
2023-04-28T13:16:25.273Z,26.19
2023-04-28T13:18:59.463Z,26.26
2023-04-28T13:21:29.792Z,25.70
2023-04-28T13:23:59.884Z,25.73
2023-04-28T13:26:30.469Z,26.25
2023-04-28T13:29:00.661Z,26.36
2023-04-28T13:31:31.580Z,26.76
2023-04-28T13:34:05.451Z,27.16
2023-04-28T13:36:35.714Z,27.14
2023-04-28T13:39:06.426Z,27.20
2023-04-28T13:41:37.106Z,27.65
2023-04-28T13:44:07.458Z,27.57
2023-04-28T13:46:37.764Z,27.78
2023-04-28T13:49:10.761Z,27.67
2023-04-28T13:51:41.204Z,28.11
2023-04-28T13:54:11.770Z,28.35
2023-04-28T13:56:42.302Z,28.34
2023-04-28T13:59:12.378Z,28.82
2023-04-28T14:01:42.801Z,28.58
2023-04-28T14:04:15.765Z,28.50
2023-04-28T14:06:46.176Z,28.59
2023-04-28T14:09:16.378Z,29.12
2023-04-28T14:11:46.933Z,29.40
2023-04-28T14:14:16.929Z,29.34
2023-04-28T14:16:47.867Z,29.81
2023-04-28T14:19:21.260Z,29.88
2023-04-28T14:21:51.553Z,30.38
2023-04-28T14:24:21.938Z,30.75
2023-04-28T14:26:52.884Z,31.07
2023-04-28T14:29:23.141Z,31.28
2023-04-28T14:31:53.484Z,31.34
2023-04-28T14:34:26.298Z,31.99
2023-04-28T14:36:56.359Z,32.53
2023-04-28T14:39:26.607Z,32.15
2023-04-28T14:41:56.752Z,32.04
2023-04-28T14:44:26.945Z,32.28
2023-04-28T14:47:01.568Z,32.00
2023-04-28T14:49:35.159Z,32.04
2023-04-28T14:52:07.548Z,32.08
2023-04-28T14:54:37.835Z,32.06
2023-04-28T14:57:12.191Z,31.95
2023-04-28T14:59:42.343Z,31.93
2023-04-28T15:02:13.677Z,32.03
2023-04-28T15:04:48.539Z,31.43
2023-04-28T15:07:18.864Z,31.55
2023-04-28T15:09:51.977Z,31.51
2023-04-28T15:12:24.154Z,31.88
2023-04-28T15:14:55.980Z,31.76
2023-04-28T15:17:29.230Z,31.93
2023-04-28T15:20:05.342Z,31.87
2023-04-28T15:22:38.943Z,32.17
2023-04-28T15:25:12.543Z,32.42
2023-04-28T15:27:42.543Z,32.61
2023-04-28T15:30:13.936Z,32.06
2023-04-28T15:32:44.141Z,32.11
2023-04-28T15:35:16.800Z,32.23
2023-04-28T15:37:49.183Z,32.58
2023-04-28T15:40:20.154Z,32.60
2023-04-28T15:42:53.143Z,32.56
2023-04-28T15:45:24.835Z,32.62
2023-04-28T15:47:55.239Z,32.78
2023-04-28T15:50:28.080Z,32.57
2023-04-28T15:52:58.269Z,32.15
2023-04-28T15:55:28.488Z,32.60
2023-04-28T15:57:59.216Z,33.04
2023-04-28T16:00:29.314Z,33.59
2023-04-28T16:03:01.606Z,34.20
2023-04-28T16:05:34.537Z,34.97
2023-04-28T16:08:04.533Z,35.21
2023-04-28T16:10:34.578Z,35.74
2023-04-28T16:13:06.405Z,35.93
2023-04-28T16:15:36.584Z,36.23
2023-04-28T16:18:07.171Z,36.47
2023-04-28T16:20:39.927Z,37.36
2023-04-28T16:23:13.253Z,37.85
2023-04-28T16:25:44.124Z,38.06
2023-04-28T16:28:14.240Z,38.27
2023-04-28T16:30:44.293Z,38.64
2023-04-28T16:33:14.489Z,38.83
2023-04-28T16:35:47.263Z,39.22
2023-04-28T16:38:17.430Z,39.35
2023-04-28T16:40:47.703Z,39.23
2023-04-28T16:43:17.936Z,39.68
2023-04-28T16:45:48.197Z,39.33
2023-04-28T16:48:20.251Z,40.02
2023-04-28T16:50:53.033Z,40.19
2023-04-28T16:53:23.112Z,40.28
2023-04-28T16:55:53.185Z,40.33
2023-04-28T16:58:23.329Z,40.32
2023-04-28T17:00:53.388Z,40.47
2023-04-28T17:03:23.560Z,40.34
2023-04-28T17:05:56.293Z,40.66
2023-04-28T17:08:26.418Z,41.05
2023-04-28T17:10:56.436Z,41.40
2023-04-28T17:13:26.458Z,41.87
2023-04-28T17:15:57.623Z,41.70
2023-04-28T17:18:28.061Z,41.85
2023-04-28T17:21:00.738Z,42.22
2023-04-28T17:23:30.761Z,42.00
2023-04-28T17:26:01.242Z,41.61
2023-04-28T17:28:32.943Z,41.77
2023-04-28T17:31:04.249Z,41.81
2023-04-28T17:33:34.756Z,41.96
2023-04-28T17:36:10.755Z,41.61
2023-04-28T17:38:51.060Z,41.69
2023-04-28T17:41:21.437Z,41.79
2023-04-28T17:43:51.681Z,42.17
2023-04-28T17:46:22.177Z,42.28
2023-04-28T17:48:52.633Z,42.44
2023-04-28T17:51:25.410Z,42.89
2023-04-28T17:53:57.033Z,42.79
2023-04-28T17:56:27.175Z,42.93
2023-04-28T17:58:57.245Z,43.80
2023-04-28T18:01:27.377Z,44.82
2023-04-28T18:03:58.705Z,44.95
2023-04-28T18:06:32.039Z,45.51
2023-04-28T18:09:02.421Z,45.82
2023-04-28T18:11:32.846Z,45.85
2023-04-28T18:14:03.041Z,46.46
2023-04-28T18:16:33.130Z,46.61
2023-04-28T18:19:03.373Z,47.11
2023-04-28T18:21:36.008Z,47.76
2023-04-28T18:24:06.427Z,47.60
2023-04-28T18:26:36.590Z,47.63
2023-04-28T18:29:06.735Z,47.60
2023-04-28T18:31:39.750Z,47.70
2023-04-28T18:34:09.971Z,48.03
2023-04-28T18:36:42.608Z,48.01
2023-04-28T18:39:12.881Z,47.87
2023-04-28T18:41:43.006Z,48.35
2023-04-28T18:44:13.177Z,48.06
2023-04-28T18:46:43.493Z,48.44
2023-04-28T18:49:13.770Z,48.02
2023-04-28T18:51:46.610Z,48.31
2023-04-28T18:54:18.088Z,48.45
2023-04-28T18:56:48.197Z,48.54
2023-04-28T18:59:18.203Z,48.51
2023-04-28T19:01:48.317Z,48.58
2023-04-28T19:04:19.039Z,49.11
2023-04-28T19:07:07.105Z,49.36
2023-04-28T19:09:37.245Z,49.48
2023-04-28T19:12:07.892Z,49.63
2023-04-28T19:14:37.978Z,49.69
2023-04-28T19:17:08.162Z,49.79
2023-04-28T19:19:38.318Z,49.68
2023-04-28T19:22:31.654Z,49.24
2023-04-28T19:25:01.828Z,49.63
2023-04-28T19:27:36.751Z,49.62
2023-04-28T19:30:09.036Z,49.00
2023-04-28T19:32:39.111Z,48.69
2023-04-28T19:35:10.326Z,49.42
2023-04-28T19:37:43.374Z,49.41
2023-04-28T19:40:14.971Z,49.67
2023-04-28T19:42:45.047Z,50.12
2023-04-28T19:45:17.145Z,50.29
2023-04-28T19:47:47.266Z,50.77
2023-04-28T19:50:18.961Z,50.41
2023-04-28T19:52:52.192Z,50.17
2023-04-28T19:55:23.227Z,50.16
2023-04-28T19:57:57.308Z,50.12
2023-04-28T20:00:29.309Z,49.91
2023-04-28T20:03:01.320Z,50.07
2023-04-28T20:05:31.852Z,50.19
2023-04-28T20:08:04.573Z,50.28
2023-04-28T20:10:34.572Z,50.29
2023-04-28T20:13:06.661Z,50.48
2023-04-28T20:15:36.721Z,50.37
2023-04-28T20:18:06.981Z,50.55
2023-04-28T20:20:37.166Z,50.25
2023-04-28T20:23:09.803Z,50.51
2023-04-28T20:25:41.476Z,50.14
2023-04-28T20:28:11.517Z,50.28
2023-04-28T20:30:42.958Z,50.98
2023-04-28T20:33:13.390Z,50.89
2023-04-28T20:35:44.090Z,50.89
2023-04-28T20:38:16.880Z,51.25
2023-04-28T20:40:46.885Z,51.32
2023-04-28T20:43:17.322Z,51.85
2023-04-28T20:45:47.557Z,51.77
2023-04-28T20:48:17.690Z,52.08
2023-04-28T20:50:48.877Z,52.15
2023-04-28T20:53:21.807Z,51.89
2023-04-28T20:55:53.135Z,51.90
2023-04-28T20:58:23.306Z,51.96
2023-04-28T21:00:53.633Z,52.07
2023-04-28T21:03:24.011Z,52.23
2023-04-28T21:05:54.198Z,52.34
2023-04-28T21:08:26.820Z,52.49
2023-04-28T21:10:57.017Z,52.57
2023-04-28T21:13:27.066Z,52.48
2023-04-28T21:15:57.175Z,52.22
2023-04-28T21:18:27.268Z,52.41
2023-04-28T21:20:57.591Z,52.18
2023-04-28T21:23:30.431Z,52.17
2023-04-28T21:26:00.490Z,51.92
2023-04-28T21:28:34.015Z,51.96
2023-04-28T21:31:04.457Z,51.75
2023-04-28T21:33:34.982Z,51.76
2023-04-28T21:36:09.353Z,51.88
2023-04-28T21:38:42.059Z,51.79
2023-04-28T21:41:12.595Z,51.59
2023-04-28T21:43:42.956Z,51.36
2023-04-28T21:46:13.320Z,51.27
2023-04-28T21:48:43.394Z,51.30
2023-04-28T21:51:14.481Z,51.45
2023-04-28T21:53:47.151Z,52.00
2023-04-28T21:56:17.895Z,52.08
2023-04-28T21:58:48.134Z,52.13
2023-04-28T22:01:18.862Z,52.50
2023-04-28T22:03:50.332Z,52.63
2023-04-28T22:06:20.773Z,52.56
2023-04-28T22:08:54.032Z,53.07
2023-04-28T22:11:25.552Z,53.26
2023-04-28T22:13:55.714Z,52.95
2023-04-28T22:16:25.806Z,52.81
2023-04-28T22:18:55.877Z,52.70
2023-04-28T22:21:26.105Z,52.49
2023-04-28T22:23:59.122Z,52.46
2023-04-28T22:26:32.392Z,52.69
2023-04-28T22:29:02.547Z,52.70
2023-04-28T22:31:32.916Z,52.83
2023-04-28T22:34:03.170Z,52.96
2023-04-28T22:36:33.466Z,53.04
2023-04-28T22:39:06.896Z,53.18
2023-04-28T22:41:37.176Z,53.27
2023-04-28T22:44:07.734Z,53.41
2023-04-28T22:46:37.842Z,53.48
2023-04-28T22:49:07.945Z,53.26
2023-04-28T22:51:38.520Z,53.12
2023-04-28T22:54:11.504Z,53.14
2023-04-28T22:56:42.596Z,52.85
2023-04-28T22:59:12.617Z,52.71
2023-04-28T23:01:42.800Z,52.88
2023-04-28T23:04:13.058Z,53.12
2023-04-28T23:06:43.289Z,52.82
2023-04-28T23:09:15.900Z,52.88
2023-04-28T23:11:45.951Z,52.43
2023-04-28T23:14:16.090Z,52.55
2023-04-28T23:16:46.472Z,52.60
2023-04-28T23:19:18.061Z,52.58
2023-04-28T23:21:49.377Z,52.68
2023-04-28T23:24:22.123Z,52.63
2023-04-28T23:26:52.104Z,52.82
2023-04-28T23:29:22.101Z,53.38
2023-04-28T23:31:54.819Z,53.34
2023-04-28T23:34:25.265Z,53.54
2023-04-28T23:36:55.424Z,53.56
2023-04-28T23:39:30.247Z,53.57
2023-04-28T23:42:02.022Z,53.84
2023-04-28T23:44:32.188Z,53.84
2023-04-28T23:47:02.380Z,53.95
2023-04-28T23:49:32.522Z,53.84
2023-04-28T23:52:02.882Z,54.07
2023-04-28T23:54:35.973Z,54.38
2023-04-28T23:57:06.247Z,54.27
2023-04-28T23:59:36.427Z,53.88
